Bern, Kansas
Current Conditions -  °F | °C
As of 8:36 AM on Saturday 22 Nov 2014 (Local Time) from KFNB Reporting Station
Haze Haze  
Wind Chill: 39°   Ceiling: 400
Heat Index: 44°   Visibility: 3mi
Dew Point: 42°   Wind: 10mph
Humidity: 93%   Direction: 230°SW
Pressure: 29.91"   Gusts: NA
Location:  39.96°N, 95.97°W
Report Text: KFNB 221436Z AUTO 23009KT 3SM BR OVC004 07/06 A2991 RMK AO2 T00670056
Loading
Personal Weather Stations






























Interactive Weather Map New forecast layout! Learn more

10-Day Weather Forecast

Advertisements
Track Severe Weather on mobile